Time;durP1;ratioP1;P1;durP2;ratioP2;P2;SDS_P1;SDS_P2;PMS_P1;PMS_P2;Temp;Humidity;BMP_temperature;BMP_pressure;BME280_temperature;BME280_humidity;BME280_pressure;Samples;Min_cycle;Max_cycle;Signal;HPM_P1;HPM_P2
2022/05/12 00:00:16;;;;;;;11.88;7.22;;;10.90;99.90;;;;;;4916839;29;20054;-77
2022/05/12 00:02:45;;;;;;;17.05;12.35;;;10.90;99.90;;;;;;4930661;29;20051;-77
2022/05/12 00:05:13;;;;;;;11.90;7.32;;;10.90;99.90;;;;;;4931288;29;20060;-77
2022/05/12 00:07:41;;;;;;;15.65;8.20;;;11.00;99.90;;;;;;4931994;29;20047;-78
2022/05/12 00:10:11;;;;;;;17.50;7.70;;;11.00;99.90;;;;;;4932068;29;20548;-78
2022/05/12 00:12:39;;;;;;;9.43;4.90;;;11.00;99.90;;;;;;4928328;29;20062;-78
2022/05/12 00:15:10;;;;;;;14.18;5.68;;;11.00;99.90;;;;;;4930669;29;20052;-77
2022/05/12 00:17:37;;;;;;;10.02;5.43;;;11.00;99.90;;;;;;4931177;29;20054;-77
2022/05/12 00:20:08;;;;;;;12.73;5.47;;;11.00;99.90;;;;;;4930941;29;20052;-77
2022/05/12 00:22:35;;;;;;;10.45;4.97;;;11.00;99.90;;;;;;4929524;29;20115;-78
2022/05/12 00:25:03;;;;;;;8.15;4.90;;;11.00;99.90;;;;;;4935738;29;20062;-77
2022/05/12 00:27:31;;;;;;;15.15;5.82;;;11.00;99.90;;;;;;4937300;29;20107;-78
2022/05/12 00:29:58;;;;;;;9.82;5.15;;;11.00;99.90;;;;;;4934718;29;20492;-77
2022/05/12 00:32:25;;;;;;;15.80;4.93;;;11.00;99.90;;;;;;4916632;29;20048;-78
2022/05/12 00:34:52;;;;;;;10.32;4.30;;;11.00;99.90;;;;;;4920908;29;20051;-77
2022/05/12 00:37:21;;;;;;;10.63;5.40;;;11.00;99.90;;;;;;4919969;29;20166;-78
2022/05/12 00:39:48;;;;;;;14.93;5.40;;;11.00;99.90;;;;;;4932422;29;20131;-77
2022/05/12 00:42:15;;;;;;;10.32;4.78;;;10.90;99.90;;;;;;4918455;29;20079;-79
2022/05/12 00:44:43;;;;;;;7.72;4.30;;;10.90;99.90;;;;;;4934573;29;20054;-78
2022/05/12 00:47:10;;;;;;;6.28;4.18;;;10.90;99.90;;;;;;4937067;29;20070;-78
2022/05/12 00:49:40;;;;;;;7.47;4.90;;;10.90;99.90;;;;;;4933699;29;20192;-77
2022/05/12 00:52:11;;;;;;;6.50;4.57;;;10.80;99.90;;;;;;4934466;29;20051;-79
2022/05/12 00:54:46;;;;;;;8.98;5.13;;;10.80;99.90;;;;;;4936069;29;20098;-78
2022/05/12 00:57:16;;;;;;;8.15;4.53;;;10.80;99.90;;;;;;4934755;29;20440;-77
2022/05/12 00:59:44;;;;;;;9.90;5.10;;;10.80;99.90;;;;;;4933420;29;20048;-77
2022/05/12 01:02:15;;;;;;;9.48;4.97;;;10.80;99.90;;;;;;4918355;29;20516;-77
2022/05/12 01:04:44;;;;;;;8.90;4.78;;;10.80;99.90;;;;;;4935669;29;20055;-77
2022/05/12 01:07:11;;;;;;;12.88;5.82;;;10.70;99.90;;;;;;4931764;29;20496;-77
2022/05/12 01:09:38;;;;;;;22.38;5.95;;;10.70;99.90;;;;;;4934873;29;20527;-77
2022/05/12 01:12:08;;;;;;;21.45;6.28;;;10.70;99.90;;;;;;4933461;29;20516;-77
2022/05/12 01:14:36;;;;;;;29.17;6.47;;;10.70;99.90;;;;;;4935989;29;20058;-78
2022/05/12 01:17:05;;;;;;;33.17;7.35;;;10.70;99.90;;;;;;4933199;29;20122;-78
2022/05/12 01:19:35;;;;;;;27.10;6.97;;;10.60;99.90;;;;;;4917461;29;20053;-78
2022/05/12 01:22:03;;;;;;;31.55;7.18;;;10.60;99.90;;;;;;4935303;29;20090;-77
2022/05/12 01:24:34;;;;;;;30.40;6.80;;;10.60;99.90;;;;;;4936198;29;20052;-76
2022/05/12 01:27:18;;;;;;;18.17;5.88;;;10.60;99.90;;;;;;4932673;29;20495;-76
2022/05/12 01:29:47;;;;;;;16.20;6.45;;;10.60;99.90;;;;;;4934326;29;20571;-78
2022/05/12 01:32:14;;;;;;;22.05;6.80;;;10.50;99.90;;;;;;4917883;29;20091;-77
2022/05/12 01:34:42;;;;;;;34.47;6.90;;;10.50;99.90;;;;;;4930806;29;20823;-76
2022/05/12 01:37:09;;;;;;;29.70;7.60;;;10.50;99.90;;;;;;4935568;29;20055;-77
2022/05/12 01:39:38;;;;;;;26.85;7.40;;;10.40;99.90;;;;;;4934156;29;20122;-77
2022/05/12 01:42:07;;;;;;;28.20;6.45;;;10.40;99.90;;;;;;4936281;29;20051;-75
2022/05/12 01:44:35;;;;;;;28.52;7.28;;;10.40;99.90;;;;;;4932543;29;20127;-72
2022/05/12 01:47:02;;;;;;;23.30;7.50;;;10.40;99.90;;;;;;4934841;29;20519;-73
2022/05/12 01:49:30;;;;;;;29.38;7.32;;;10.40;99.90;;;;;;4934409;29;20067;-72
2022/05/12 01:51:59;;;;;;;33.78;8.45;;;10.40;99.90;;;;;;4934304;29;20110;-73
2022/05/12 01:54:28;;;;;;;38.22;8.15;;;10.40;99.90;;;;;;4926502;29;20413;-73
2022/05/12 01:56:57;;;;;;;26.40;8.77;;;10.50;99.90;;;;;;4933185;29;20059;-73
2022/05/12 01:59:24;;;;;;;24.33;7.63;;;10.50;99.90;;;;;;4935829;29;20052;-72
2022/05/12 02:01:52;;;;;;;26.17;7.78;;;10.50;99.90;;;;;;4916918;29;20071;-74
2022/05/12 02:04:20;;;;;;;31.73;7.35;;;10.50;99.90;;;;;;4934211;29;20062;-73
2022/05/12 02:06:48;;;;;;;36.78;8.00;;;10.50;99.90;;;;;;4917156;29;20051;-73
2022/05/12 02:09:16;;;;;;;26.90;7.03;;;10.50;99.90;;;;;;4934554;29;20083;-73
2022/05/12 02:11:43;;;;;;;26.88;7.03;;;10.50;99.90;;;;;;4931615;29;20044;-73
2022/05/12 02:14:14;;;;;;;22.40;5.97;;;10.50;99.90;;;;;;4933482;29;20070;-73
2022/05/12 02:16:41;;;;;;;21.85;5.93;;;10.50;99.90;;;;;;4933517;29;20051;-73
2022/05/12 02:19:09;;;;;;;20.65;5.85;;;10.50;99.90;;;;;;4934551;29;20400;-73
2022/05/12 02:21:37;;;;;;;15.55;5.35;;;10.50;99.90;;;;;;4933450;29;20131;-74
2022/05/12 02:24:05;;;;;;;15.68;5.82;;;10.50;99.90;;;;;;4936941;29;20062;-73
2022/05/12 02:26:32;;;;;;;16.98;6.95;;;10.60;99.90;;;;;;4926174;29;20093;-73
2022/05/12 02:29:00;;;;;;;13.60;5.30;;;10.60;99.90;;;;;;4920492;29;20122;-74
2022/05/12 02:31:29;;;;;;;20.48;5.18;;;10.70;99.90;;;;;;4931363;29;20095;-73
2022/05/12 02:33:56;;;;;;;18.77;6.10;;;10.70;99.90;;;;;;4933069;29;20103;-73
2022/05/12 02:36:23;;;;;;;12.18;5.63;;;10.70;99.90;;;;;;4933477;29;20056;-73
2022/05/12 02:38:51;;;;;;;14.90;5.40;;;10.80;99.90;;;;;;4933022;29;20106;-73
2022/05/12 02:41:18;;;;;;;17.30;6.03;;;10.80;99.90;;;;;;4931839;29;20051;-73
2022/05/12 02:43:45;;;;;;;14.40;5.05;;;10.80;99.90;;;;;;4916964;29;20044;-74
2022/05/12 02:46:14;;;;;;;11.05;4.75;;;10.90;99.90;;;;;;4933523;29;20135;-72
2022/05/12 02:48:45;;;;;;;11.45;5.70;;;10.90;99.90;;;;;;4932227;29;20047;-73
2022/05/12 02:51:13;;;;;;;18.88;7.47;;;10.90;99.90;;;;;;4933137;29;20146;-74
2022/05/12 02:53:43;;;;;;;18.38;7.40;;;10.90;99.90;;;;;;4935343;29;20056;-73
2022/05/12 02:56:11;;;;;;;14.77;8.15;;;11.00;99.90;;;;;;4937823;29;20055;-72
2022/05/12 02:58:38;;;;;;;24.27;7.90;;;11.00;99.90;;;;;;4931158;29;20048;-74
2022/05/12 03:01:07;;;;;;;15.77;8.15;;;11.10;99.90;;;;;;4931909;29;20052;-72
2022/05/12 03:03:35;;;;;;;21.50;8.25;;;11.10;99.90;;;;;;4932189;29;20071;-73
2022/05/12 03:06:04;;;;;;;22.00;10.18;;;11.20;99.90;;;;;;4944050;29;20058;-73
2022/05/12 03:08:31;;;;;;;20.33;8.65;;;11.20;99.90;;;;;;4921444;29;20047;-72
2022/05/12 03:10:58;;;;;;;24.67;9.10;;;11.20;99.90;;;;;;4916191;29;20068;-72
2022/05/12 03:13:25;;;;;;;17.27;9.10;;;11.30;99.90;;;;;;4933453;29;20047;-73
2022/05/12 03:15:53;;;;;;;18.10;8.18;;;11.30;99.90;;;;;;4916694;29;20047;-73
2022/05/12 03:18:20;;;;;;;20.25;9.18;;;11.40;99.90;;;;;;4932248;29;20424;-73
2022/05/12 03:20:47;;;;;;;14.75;7.68;;;11.40;99.90;;;;;;4932556;29;20138;-73
2022/05/12 03:23:17;;;;;;;17.63;8.50;;;11.40;99.90;;;;;;4931978;29;20530;-73
2022/05/12 03:25:44;;;;;;;16.55;8.00;;;11.40;99.90;;;;;;4932718;29;20635;-74
2022/05/12 03:28:11;;;;;;;17.35;7.82;;;11.50;99.90;;;;;;4932323;29;20442;-73
2022/05/12 03:30:39;;;;;;;15.30;8.73;;;11.50;99.90;;;;;;4917090;29;20082;-73
2022/05/12 03:33:07;;;;;;;17.77;8.68;;;11.60;99.90;;;;;;4932872;29;20047;-72
2022/05/12 03:35:34;;;;;;;24.73;11.13;;;11.60;99.90;;;;;;4931660;29;20043;-73
2022/05/12 03:38:01;;;;;;;21.48;10.40;;;11.70;99.90;;;;;;4932734;29;20051;-72
2022/05/12 03:40:30;;;;;;;19.73;9.07;;;11.80;99.90;;;;;;4931065;29;20055;-73
2022/05/12 03:42:59;;;;;;;16.00;8.43;;;12.00;99.90;;;;;;4944839;28;20047;-72
2022/05/12 03:45:26;;;;;;;15.00;7.90;;;12.00;99.90;;;;;;4928555;29;20412;-72
2022/05/12 03:47:55;;;;;;;21.15;8.00;;;12.10;99.90;;;;;;4932981;29;20051;-73
2022/05/12 03:50:24;;;;;;;16.98;7.97;;;12.10;99.90;;;;;;4932823;29;20151;-72
2022/05/12 03:52:53;;;;;;;17.50;8.93;;;12.10;99.90;;;;;;4934039;29;20055;-72
2022/05/12 03:55:24;;;;;;;18.13;7.75;;;12.10;99.90;;;;;;4930307;29;20051;-73
2022/05/12 03:57:55;;;;;;;16.02;8.18;;;12.20;99.90;;;;;;4930381;29;20055;-74
2022/05/12 04:00:25;;;;;;;16.67;8.10;;;12.20;99.90;;;;;;4932329;29;20056;-73
2022/05/12 04:02:53;;;;;;;18.50;9.25;;;12.20;99.90;;;;;;4930282;29;20504;-72
2022/05/12 04:05:22;;;;;;;16.77;8.57;;;12.20;99.90;;;;;;4931298;29;20070;-72
2022/05/12 04:07:49;;;;;;;18.58;9.52;;;12.30;99.90;;;;;;4931638;29;20071;-73
2022/05/12 04:10:17;;;;;;;12.35;7.55;;;12.40;99.90;;;;;;4930842;29;20107;-73
2022/05/12 04:12:44;;;;;;;18.23;8.82;;;12.50;99.90;;;;;;4915304;29;20498;-72
2022/05/12 04:15:15;;;;;;;23.63;8.63;;;12.60;99.90;;;;;;4914192;29;20051;-73
2022/05/12 04:17:43;;;;;;;17.50;7.93;;;12.60;99.90;;;;;;4934467;29;20054;-73
2022/05/12 04:20:14;;;;;;;29.90;7.68;;;12.60;99.90;;;;;;4938312;29;20146;-78
2022/05/12 04:22:43;;;;;;;18.10;8.40;;;12.70;99.90;;;;;;4938833;29;20059;-78
2022/05/12 04:25:11;;;;;;;19.75;8.02;;;12.70;99.90;;;;;;4931887;29;20082;-78
2022/05/12 04:27:39;;;;;;;16.63;7.82;;;12.80;99.90;;;;;;4927529;28;20043;-75
2022/05/12 04:30:08;;;;;;;16.58;8.30;;;12.90;99.90;;;;;;4916661;29;20090;-78
2022/05/12 04:32:37;;;;;;;21.85;7.22;;;13.00;99.90;;;;;;4926632;29;20044;-74
2022/05/12 04:35:12;;;;;;;17.98;6.45;;;13.10;99.90;;;;;;4941439;29;20062;-74
2022/05/12 04:37:41;;;;;;;13.48;7.65;;;13.20;99.90;;;;;;4933207;29;20060;-72
2022/05/12 04:40:45;;;;;;;17.63;7.88;;;13.30;99.90;;;;;;4932027;29;20052;-74
2022/05/12 04:43:12;;;;;;;16.08;7.00;;;13.30;99.90;;;;;;4937431;28;20059;-77
2022/05/12 04:45:40;;;;;;;18.38;7.38;;;13.40;99.90;;;;;;4941630;28;20094;-76
2022/05/12 04:48:10;;;;;;;13.35;6.22;;;13.40;99.90;;;;;;4944924;28;20051;-76
2022/05/12 04:50:41;;;;;;;15.13;6.78;;;13.50;99.90;;;;;;4937788;28;20063;-73
2022/05/12 04:53:09;;;;;;;13.38;6.25;;;13.60;99.90;;;;;;4939736;28;20142;-76
2022/05/12 04:55:38;;;;;;;19.65;6.88;;;13.70;99.90;;;;;;4932022;29;20040;-77
2022/05/12 04:58:05;;;;;;;23.33;9.73;;;13.80;99.90;;;;;;4922372;29;20059;-77
2022/05/12 05:00:37;;;;;;;16.80;6.18;;;13.70;99.90;;;;;;4935515;29;20039;-76
2022/05/12 05:03:05;;;;;;;10.75;5.30;;;13.80;99.90;;;;;;4928747;29;20051;-76
2022/05/12 05:05:34;;;;;;;11.13;5.93;;;13.80;99.90;;;;;;4916162;29;20063;-76
2022/05/12 05:08:02;;;;;;;10.98;5.80;;;13.80;99.90;;;;;;4931170;29;20063;-74
2022/05/12 05:10:32;;;;;;;16.17;7.30;;;13.80;99.90;;;;;;4918060;29;20079;-74
2022/05/12 05:12:59;;;;;;;16.25;7.35;;;13.80;99.90;;;;;;4931687;29;20052;-74
2022/05/12 05:15:27;;;;;;;17.25;7.40;;;13.90;99.90;;;;;;4932310;29;20040;-77
2022/05/12 05:17:54;;;;;;;11.95;6.13;;;13.90;99.90;;;;;;4933601;29;20256;-74
2022/05/12 05:21:19;;;;;;;12.93;6.28;;;13.90;99.90;;;;;;4933689;29;20075;-73
2022/05/12 05:23:48;;;;;;;12.85;7.57;;;14.00;99.90;;;;;;4930057;29;20119;-74
2022/05/12 05:26:15;;;;;;;21.08;7.82;;;14.20;99.90;;;;;;4933542;29;20054;-73
2022/05/12 05:28:42;;;;;;;15.13;7.00;;;14.30;99.90;;;;;;4915943;29;20579;-74
2022/05/12 05:31:09;;;;;;;15.10;6.75;;;14.30;99.90;;;;;;4932071;29;20051;-75
2022/05/12 05:33:37;;;;;;;20.35;7.30;;;14.30;99.90;;;;;;4932679;29;20118;-75
2022/05/12 05:36:05;;;;;;;14.13;7.07;;;14.30;99.90;;;;;;4917313;29;20044;-74
2022/05/12 05:38:32;;;;;;;17.80;7.10;;;14.40;99.90;;;;;;4934676;29;20452;-75
2022/05/12 05:41:01;;;;;;;13.05;6.78;;;14.30;99.90;;;;;;4932534;29;20425;-74
2022/05/12 05:43:29;;;;;;;13.45;6.60;;;14.30;99.90;;;;;;4919138;29;20060;-74
2022/05/12 05:45:56;;;;;;;12.32;6.47;;;14.20;99.90;;;;;;4917385;29;20425;-75
2022/05/12 05:48:24;;;;;;;18.20;7.05;;;14.10;99.90;;;;;;4944762;28;20130;-74
2022/05/12 05:53:38;;;;;;;23.80;7.93;;;14.00;99.90;;;;;;4921193;29;20103;-74
2022/05/12 05:56:17;;;;;;;20.90;6.88;;;14.00;99.90;;;;;;4916024;29;20064;-75
2022/05/12 05:58:51;;;;;;;20.65;8.32;;;14.10;99.90;;;;;;4932626;29;20469;-75
2022/05/12 06:01:19;;;;;;;18.23;7.00;;;14.30;99.90;;;;;;4933587;29;20047;-74
2022/05/12 06:03:46;;;;;;;15.85;7.38;;;14.50;99.90;;;;;;4916785;29;20099;-75
2022/05/12 06:06:13;;;;;;;18.25;7.38;;;14.80;99.90;;;;;;4935800;29;20056;-75
2022/05/12 06:08:40;;;;;;;13.90;6.97;;;15.20;99.90;;;;;;4933063;29;20701;-74
2022/05/12 06:11:09;;;;;;;13.95;6.72;;;15.40;99.90;;;;;;4950741;29;20234;-75
2022/05/12 06:13:36;;;;;;;20.02;7.28;;;15.50;99.90;;;;;;4915744;29;20070;-74
2022/05/12 06:16:05;;;;;;;18.48;7.22;;;15.60;99.90;;;;;;4936676;29;20375;-75
2022/05/12 06:18:34;;;;;;;16.55;6.80;;;16.00;99.90;;;;;;4945949;29;20146;-73
2022/05/12 06:21:02;;;;;;;19.23;6.60;;;16.30;99.90;;;;;;4945330;29;20440;-77
2022/05/12 06:23:35;;;;;;;19.02;6.30;;;16.70;99.90;;;;;;4918994;29;20052;-78
2022/05/12 06:26:02;;;;;;;11.13;5.88;;;16.90;99.90;;;;;;4920282;29;20444;-76
2022/05/12 06:28:31;;;;;;;13.80;6.88;;;17.10;99.90;;;;;;4941167;29;20468;-73
2022/05/12 06:30:59;;;;;;;18.52;6.70;;;17.20;99.90;;;;;;4938774;29;20094;-73
2022/05/12 06:33:26;;;;;;;12.30;6.35;;;17.20;99.90;;;;;;4935506;28;20048;-74
2022/05/12 06:35:56;;;;;;;10.23;5.95;;;17.30;99.90;;;;;;4936621;28;20055;-74
2022/05/12 06:38:25;;;;;;;16.85;6.32;;;17.70;99.90;;;;;;4940906;28;20063;-75
2022/05/12 06:40:54;;;;;;;11.38;6.75;;;17.80;99.90;;;;;;4938807;29;20590;-77
2022/05/12 06:43:23;;;;;;;13.35;6.72;;;17.80;99.90;;;;;;4937517;28;20043;-75
2022/05/12 06:45:52;;;;;;;16.63;6.60;;;17.60;99.90;;;;;;4941283;29;20141;-73
2022/05/12 06:48:20;;;;;;;14.68;6.15;;;17.90;99.90;;;;;;4936164;28;20051;-73
2022/05/12 06:50:48;;;;;;;13.85;6.38;;;18.30;99.90;;;;;;4937167;29;20169;-78
2022/05/12 06:53:15;;;;;;;10.82;5.45;;;18.90;99.90;;;;;;4938510;28;20051;-78
2022/05/12 06:55:43;;;;;;;15.05;5.68;;;19.40;99.90;;;;;;4935041;29;20075;-77
2022/05/12 06:58:10;;;;;;;11.70;4.93;;;19.40;95.80;;;;;;4941430;28;20082;-79
2022/05/12 07:00:38;;;;;;;14.55;4.95;;;19.00;95.20;;;;;;4932765;29;20079;-78
2022/05/12 07:03:07;;;;;;;8.65;4.30;;;18.90;95.80;;;;;;4932165;29;20079;-78
2022/05/12 07:05:34;;;;;;;10.25;5.40;;;19.30;94.60;;;;;;4938808;29;20062;-78
2022/05/12 07:08:02;;;;;;;9.25;4.45;;;19.50;93.20;;;;;;4931485;29;20051;-78
2022/05/12 07:10:29;;;;;;;12.18;4.32;;;19.50;92.70;;;;;;4933742;29;20616;-78
2022/05/12 07:12:56;;;;;;;5.07;3.97;;;19.60;92.10;;;;;;4939239;29;20051;-77
2022/05/12 07:15:27;;;;;;;9.10;4.28;;;20.00;89.50;;;;;;4932324;28;20142;-77
2022/05/12 07:17:56;;;;;;;14.52;4.30;;;20.10;87.10;;;;;;4933658;29;20043;-77
2022/05/12 07:28:53;;;;;;;8.65;3.92;;;20.50;81.70;;;;;;4913300;29;20402;-74
2022/05/12 07:31:20;;;;;;;13.40;4.15;;;20.60;82.20;;;;;;4931025;29;20266;-74
2022/05/12 07:33:48;;;;;;;15.63;3.92;;;21.10;78.40;;;;;;4931712;29;20047;-73
2022/05/12 07:36:19;;;;;;;7.50;3.65;;;21.10;77.80;;;;;;4913939;29;20058;-73
2022/05/12 07:38:47;;;;;;;16.00;4.13;;;21.50;75.70;;;;;;4927496;29;20066;-79
2022/05/12 07:41:16;;;;;;;11.98;4.07;;;22.00;72.10;;;;;;4913391;29;20423;-76
2022/05/12 07:43:45;;;;;;;9.73;3.10;;;22.50;69.40;;;;;;4930064;29;20055;-77
2022/05/12 07:46:15;;;;;;;6.85;3.15;;;23.00;66.70;;;;;;4930128;29;20063;-75
2022/05/12 07:48:42;;;;;;;9.30;3.47;;;22.70;64.20;;;;;;4930246;29;20064;-77
2022/05/12 07:51:10;;;;;;;10.10;4.18;;;21.50;67.10;;;;;;4929978;29;20517;-77
2022/05/12 07:53:39;;;;;;;7.90;3.53;;;20.60;69.90;;;;;;4932650;29;20465;-78
2022/05/12 07:56:07;;;;;;;12.20;3.55;;;20.00;73.30;;;;;;4914777;29;20247;-78
2022/05/12 07:58:35;;;;;;;7.68;3.30;;;19.60;74.90;;;;;;4935457;29;20388;-79
2022/05/12 08:01:02;;;;;;;11.27;3.58;;;19.40;76.40;;;;;;4948373;28;20198;-76
2022/05/12 08:03:29;;;;;;;9.02;3.20;;;19.40;77.60;;;;;;4930223;29;20052;-78
2022/05/12 08:05:58;;;;;;;9.75;3.13;;;19.40;78.70;;;;;;4928435;29;20437;-76
2022/05/12 08:08:25;;;;;;;6.60;3.72;;;19.50;77.70;;;;;;4928746;29;20047;-77
2022/05/12 08:10:54;;;;;;;12.68;3.30;;;19.20;78.20;;;;;;4930399;29;20051;-77
2022/05/12 08:13:22;;;;;;;6.43;3.45;;;19.20;79.80;;;;;;4929228;29;20043;-77
2022/05/12 08:15:50;;;;;;;6.47;3.22;;;19.20;80.00;;;;;;4929101;29;20059;-78
2022/05/12 08:18:22;;;;;;;7.00;2.92;;;19.40;78.50;;;;;;4912974;29;20055;-77
2022/05/12 08:20:50;;;;;;;8.00;3.38;;;19.90;75.30;;;;;;4931844;29;20047;-77
2022/05/12 08:23:18;;;;;;;6.60;3.00;;;20.50;73.70;;;;;;4927681;29;20142;-77
2022/05/12 08:25:46;;;;;;;6.70;2.85;;;20.90;71.00;;;;;;4930555;29;20059;-77
2022/05/12 08:28:17;;;;;;;6.70;2.58;;;21.40;65.60;;;;;;4931715;29;20064;-78
2022/05/12 08:30:45;;;;;;;6.57;2.53;;;21.60;62.80;;;;;;4934317;29;20056;-78
2022/05/12 08:33:12;;;;;;;8.88;3.40;;;21.80;61.80;;;;;;4914154;29;20510;-78
2022/05/12 08:35:40;;;;;;;7.68;3.35;;;21.90;61.90;;;;;;4931289;29;20492;-77
2022/05/12 08:38:07;;;;;;;4.93;2.63;;;21.40;62.90;;;;;;4929285;29;20352;-81
2022/05/12 08:40:46;;;;;;;11.73;3.10;;;20.80;64.60;;;;;;4930105;29;20054;-71
2022/05/12 08:43:17;;;;;;;9.70;3.00;;;20.10;65.60;;;;;;4928536;29;20063;-74
2022/05/12 08:45:46;;;;;;;10.93;2.80;;;19.60;68.10;;;;;;4932226;29;20393;-76
2022/05/12 08:48:15;;;;;;;10.15;2.78;;;19.40;68.30;;;;;;4930831;29;20047;-75
2022/05/12 08:50:51;;;;;;;10.20;4.35;;;19.40;67.90;;;;;;4933761;29;20432;-74
2022/05/12 08:53:22;;;;;;;11.45;2.53;;;19.50;67.30;;;;;;4931977;29;20064;-75
2022/05/12 08:55:52;;;;;;;5.90;2.75;;;19.40;67.00;;;;;;4932578;29;20119;-76
2022/05/12 08:58:30;;;;;;;6.20;2.75;;;19.40;67.50;;;;;;4931233;29;20515;-75
2022/05/12 09:01:03;;;;;;;7.82;2.38;;;19.40;67.70;;;;;;4931383;29;20059;-75
2022/05/12 09:03:45;;;;;;;5.75;2.38;;;19.50;67.70;;;;;;4931826;29;20051;-76
2022/05/12 09:06:14;;;;;;;;;;;19.70;66.90;;;;;;4932525;29;20065;-74
2022/05/12 09:08:49;;;;;;;11.48;6.05;;;20.10;64.70;;;;;;4936210;29;19926;-76
2022/05/12 09:11:21;;;;;;;5.68;2.22;;;20.30;64.10;;;;;;4933551;29;20044;-75
2022/05/12 09:13:53;;;;;;;6.65;1.75;;;20.20;62.30;;;;;;4934089;29;20052;-76
2022/05/12 09:16:24;;;;;;;3.60;1.55;;;19.90;60.80;;;;;;4933856;29;20516;-73
2022/05/12 09:18:53;;;;;;;2.90;1.63;;;19.70;61.10;;;;;;4935545;29;20055;-75
2022/05/12 09:21:24;;;;;;;6.07;2.28;;;19.80;61.20;;;;;;4918821;29;20048;-74
2022/05/12 09:23:52;;;;;;;2.50;1.67;;;20.00;61.10;;;;;;4936605;29;20056;-74
2022/05/12 09:26:36;;;;;;;4.82;1.80;;;20.40;59.70;;;;;;4917944;29;20310;-74
2022/05/12 09:29:17;;;;;;;3.40;1.50;;;21.10;58.60;;;;;;4932536;29;20436;-74
2022/05/12 09:31:48;;;;;;;4.53;1.67;;;22.20;57.30;;;;;;4933961;29;20055;-75
2022/05/12 09:34:31;;;;;;;2.10;1.60;;;23.60;56.20;;;;;;4934532;29;20067;-74
2022/05/12 09:37:19;;;;;;;5.78;1.70;;;25.70;52.10;;;;;;4933782;29;20059;-76
2022/05/12 09:39:48;;;;;;;6.88;1.70;;;27.40;48.60;;;;;;4934129;29;20512;-74
2022/05/12 09:42:35;;;;;;;2.33;1.52;;;27.40;47.40;;;;;;4931116;29;20528;-73
2022/05/12 09:45:08;;;;;;;4.95;1.92;;;26.70;47.00;;;;;;4932008;29;20052;-75
2022/05/12 09:47:35;;;;;;;;;;;25.50;48.20;;;;;;4931385;29;20094;-74
2022/05/12 09:50:17;;;;;;;11.48;2.08;;;24.30;50.30;;;;;;4929449;29;19973;-75
2022/05/12 09:52:46;;;;;;;4.85;1.98;;;23.20;52.40;;;;;;4930268;29;20059;-74
2022/05/12 09:55:16;;;;;;;4.47;2.25;;;22.40;53.30;;;;;;4915312;29;20056;-74
2022/05/12 09:57:52;;;;;;;5.63;3.20;;;21.60;54.60;;;;;;4930084;29;20047;-75
2022/05/12 10:00:44;;;;;;;4.13;2.33;;;20.90;57.10;;;;;;4930032;29;20529;-75
2022/05/12 10:09:11;;;;;;;5.35;2.15;;;19.80;59.80;;;;;;4931833;29;20052;-75
2022/05/12 10:11:46;;;;;;;3.85;1.80;;;19.40;61.40;;;;;;4932491;29;20058;-75
2022/05/12 10:14:23;;;;;;;4.47;1.80;;;19.10;62.20;;;;;;4931945;29;20106;-75
2022/05/12 10:17:11;;;;;;;4.97;2.28;;;18.70;63.60;;;;;;4930456;29;20578;-76
2022/05/12 10:26:09;;;;;;;4.75;2.85;;;18.00;66.90;;;;;;4931193;29;20508;-79
2022/05/12 10:28:49;;;;;;;5.30;2.83;;;17.80;68.40;;;;;;4931451;29;20534;-79
2022/05/12 10:31:25;;;;;;;7.78;2.60;;;17.80;68.90;;;;;;4934243;28;20047;-79
2022/05/12 10:34:02;;;;;;;8.05;2.20;;;17.80;69.60;;;;;;4931095;29;20047;-79
2022/05/12 10:36:42;;;;;;;10.70;3.42;;;17.70;70.60;;;;;;4931273;29;20059;-81
2022/05/12 10:39:17;;;;;;;7.78;2.15;;;17.70;71.00;;;;;;4933128;29;20059;-80
2022/05/12 10:41:58;;;;;;;4.97;2.00;;;17.60;71.60;;;;;;4916073;29;20079;-80
2022/05/12 10:44:40;;;;;;;8.18;1.98;;;17.50;72.00;;;;;;4930257;29;20110;-79
2022/05/12 10:47:15;;;;;;;4.07;1.88;;;17.40;73.30;;;;;;4934314;29;20152;-79
2022/05/12 10:49:55;;;;;;;6.35;2.17;;;17.30;73.80;;;;;;4932034;29;20140;-79
2022/05/12 10:52:33;;;;;;;4.88;2.38;;;17.20;74.80;;;;;;4913294;29;20062;-79
2022/05/12 10:55:14;;;;;;;5.30;1.90;;;17.20;75.70;;;;;;4933296;29;20063;-79
2022/05/12 10:57:53;;;;;;;10.55;2.17;;;17.20;76.00;;;;;;4932317;29;20106;-78
2022/05/12 11:00:33;;;;;;;7.85;1.58;;;17.10;77.30;;;;;;4914972;29;20465;-75
2022/05/12 11:03:06;;;;;;;7.65;2.00;;;17.10;77.90;;;;;;4930823;28;20106;-75
2022/05/12 11:05:39;;;;;;;7.25;1.83;;;17.00;79.80;;;;;;4945786;28;20595;-76
2022/05/12 11:08:09;;;;;;;;;;;17.10;80.50;;;;;;4932636;29;20500;-76
2022/05/12 11:10:44;;;;;;;4.32;1.63;;;17.20;81.40;;;;;;4930321;29;20400;-77
2022/05/12 11:13:18;;;;;;;5.53;1.92;;;17.20;83.30;;;;;;4931261;29;20052;-75
2022/05/12 11:15:52;;;;;;;5.57;2.08;;;17.20;85.70;;;;;;4932338;29;20067;-75
2022/05/12 11:18:25;;;;;;;6.95;2.03;;;17.20;88.90;;;;;;4930160;29;20058;-75
2022/05/12 11:21:02;;;;;;;7.38;2.33;;;17.10;92.50;;;;;;4927559;29;20055;-76
2022/05/12 11:23:58;;;;;;;8.50;2.47;;;17.10;96.90;;;;;;4928729;29;20055;-75
2022/05/12 11:26:47;;;;;;;6.35;2.60;;;16.90;98.90;;;;;;4926365;29;20058;-75
2022/05/12 11:32:19;;;;;;;7.07;3.92;;;16.60;99.90;;;;;;4913044;29;20088;-77
2022/05/12 11:34:50;;;;;;;15.50;3.38;;;16.40;99.90;;;;;;4930342;29;20134;-74
2022/05/12 11:37:31;;;;;;;10.60;3.33;;;16.30;99.90;;;;;;4930190;29;20051;-76
2022/05/12 11:40:00;;;;;;;11.23;3.50;;;16.00;99.90;;;;;;4926456;29;20063;-75
2022/05/12 11:44:23;;;;;;;21.20;3.53;;;15.90;99.90;;;;;;4929917;29;20141;-75
2022/05/12 11:45:36;;;;;;;14.90;3.40;;;15.70;99.90;;;;;;4929814;29;20067;-76
2022/05/12 11:48:20;;;;;;;12.40;3.47;;;15.50;99.90;;;;;;4928951;29;20420;-75
2022/05/12 11:50:57;;;;;;;13.48;2.95;;;15.20;99.90;;;;;;4930426;29;20104;-76
2022/05/12 11:53:28;;;;;;;12.68;3.45;;;15.00;99.90;;;;;;4931351;29;20220;-74
2022/05/12 11:56:01;;;;;;;12.52;3.88;;;14.80;99.90;;;;;;4930864;29;20047;-75
2022/05/12 11:58:40;;;;;;;13.68;3.53;;;14.50;99.90;;;;;;4928793;29;20083;-75
2022/05/12 12:01:11;;;;;;;8.60;4.07;;;14.20;99.90;;;;;;4929791;29;20051;-75
2022/05/12 12:03:52;;;;;;;10.48;3.65;;;13.90;99.90;;;;;;4914040;29;20538;-75
2022/05/12 12:06:51;;;;;;;5.00;3.92;;;13.70;99.90;;;;;;4929067;29;20048;-78
2022/05/12 12:09:51;;;;;;;10.73;4.32;;;13.50;99.90;;;;;;4931276;29;20511;-76
2022/05/12 12:12:51;;;;;;;12.93;4.97;;;13.40;99.90;;;;;;4931499;29;20098;-76
2022/05/12 12:16:00;;;;;;;7.68;4.93;;;13.30;99.90;;;;;;4929781;29;20230;-76
2022/05/12 12:18:55;;;;;;;12.27;6.43;;;13.30;99.90;;;;;;4930738;29;20801;-75
2022/05/12 12:21:49;;;;;;;10.45;4.85;;;13.30;99.90;;;;;;4931827;29;20166;-74
2022/05/12 12:24:50;;;;;;;12.95;5.05;;;13.30;99.90;;;;;;4933036;29;20531;-75
2022/05/12 12:27:41;;;;;;;8.75;3.92;;;13.30;99.90;;;;;;4931939;29;20092;-75
2022/05/12 12:30:47;;;;;;;8.75;4.07;;;13.30;99.90;;;;;;4930268;29;20051;-75
2022/05/12 12:33:20;;;;;;;7.65;3.50;;;13.30;99.90;;;;;;4896241;29;20131;-75
2022/05/12 12:36:00;;;;;;;8.48;4.03;;;13.20;99.90;;;;;;4928262;29;20047;-76
2022/05/12 12:39:13;;;;;;;14.23;5.30;;;13.20;99.90;;;;;;4928390;29;20392;-76
2022/05/12 12:41:44;;;;;;;10.18;4.85;;;13.20;99.90;;;;;;4926321;29;20051;-77
2022/05/12 12:44:20;;;;;;;11.50;4.97;;;13.10;99.90;;;;;;4927873;29;20138;-77
2022/05/12 12:46:58;;;;;;;9.18;4.82;;;13.10;99.90;;;;;;4926707;29;20050;-77
2022/05/12 12:49:30;;;;;;;8.63;4.95;;;13.10;99.90;;;;;;4930713;29;20138;-76
2022/05/12 12:52:06;;;;;;;10.15;4.30;;;13.00;99.90;;;;;;4930008;29;20537;-77
2022/05/12 12:57:26;;;;;;;9.90;4.47;;;13.00;99.90;;;;;;4926296;29;20048;-76
2022/05/12 12:59:57;;;;;;;8.05;4.32;;;13.00;99.90;;;;;;4931152;29;20095;-75
2022/05/12 13:02:40;;;;;;;9.00;4.55;;;12.90;99.90;;;;;;4929296;29;20047;-75
2022/05/12 13:09:12;;;;;;;11.43;6.15;;;12.90;99.90;;;;;;4931283;29;20056;-79
2022/05/12 13:11:41;;;;;;;14.43;6.25;;;12.90;99.90;;;;;;4925388;29;20453;-76
2022/05/12 13:14:14;;;;;;;14.27;6.60;;;12.90;99.90;;;;;;4927133;29;20508;-76
2022/05/12 13:16:44;;;;;;;10.93;5.60;;;12.90;99.90;;;;;;4929637;29;20102;-79
2022/05/12 13:19:11;;;;;;;10.48;6.22;;;13.00;99.90;;;;;;4931286;29;20051;-78
2022/05/12 13:21:43;;;;;;;9.77;5.80;;;13.00;99.90;;;;;;4927934;29;20056;-75
2022/05/12 13:24:14;;;;;;;9.85;5.75;;;13.00;99.90;;;;;;4929474;29;20643;-77
2022/05/12 13:26:45;;;;;;;9.63;5.90;;;13.10;99.90;;;;;;4930025;29;20382;-78
2022/05/12 13:29:23;;;;;;;11.77;5.75;;;13.10;99.90;;;;;;4944473;29;20079;-78
2022/05/12 13:31:55;;;;;;;15.25;6.18;;;13.00;99.90;;;;;;4933094;29;20073;-77
2022/05/12 13:34:27;;;;;;;8.35;5.25;;;12.90;99.90;;;;;;4930600;29;20193;-78
2022/05/12 13:36:57;;;;;;;10.73;5.50;;;12.80;99.90;;;;;;4933471;29;20044;-78